Womelsdorf, Pennsylvania
Current Conditions -  °F | °C
As of 1:54 AM on Friday 31 Oct 2014 (Local Time) from KRDG Reporting Station
Broken Clouds Broken Clouds  
Wind Chill: 37°   Ceiling: 5000
Heat Index: 37°   Visibility: 10mi
Dew Point: 34°   Wind: 0mph
Humidity: 89%   Direction: NA
Pressure: 30.03"   Gusts: NA
Location:  40.36°N, 76.18°W
Report Text: KRDG 310554Z 00000KT 10SM BKN050 03/01 A3003 RMK AO2 SLP174 T00280011 10089 20028 56003
Loading
Personal Weather Stations






























Interactive Weather Map
Tropical Storm Tracking
New forecast layout! Learn more

10-Day Weather Forecast

Advertisements
Track Severe Weather on mobile